Aviation Digital Data Service (ADDS)

Output produced by METARs form (0812 UTC 28 March 2017)
found at http://www.aviationweather.gov/adds/metars/
 
KDUJ 280758Z AUTO 01006KT 3SM -RA BR SCT038 BKN048 OVC060 09/07 A2985 RMK AO2 P0000 T00940072 $
KDUJ 280753Z AUTO 34004KT 1 3/4SM -RA SCT038 BKN048 OVC065 09/07 A2986 RMK AO2 RAB48 SLP108 P0003 T00940067 $
KDUJ 280653Z AUTO 07003KT 10SM BKN045 OVC080 09/07 A2987 RMK AO2 SLP112 T00940067 $
KDUJ 280553Z AUTO 08004KT 10SM BKN100 11/07 A2988 RMK AO2 SLP117 T01060067 10150 20100 58012 $
KDUJ 280453Z AUTO 09003KT 10SM OVC100 12/07 A2989 RMK AO2 SLP121 T01170067 401720061 $
KDUJ 280353Z AUTO 10003KT 7SM FEW041 12/07 A2991 RMK AO2 SLP128 T01170067 $
KDUJ 280253Z AUTO 00000KT 10SM CLR 12/07 A2992 RMK AO2 SLP130 T01220067 50003 $
KDUJ 280153Z AUTO 00000KT 10SM CLR 13/07 A2992 RMK AO2 SLP133 T01330067 $
KDUJ 280053Z AUTO 00000KT 10SM CLR 13/07 A2991 RMK AO2 SLP129 T01330067 $
KDUJ 272353Z AUTO 21003KT 10SM FEW050 14/07 A2991 RMK AO2 SLP128 T01390067 10172 20139 56003 $
KDUJ 272253Z AUTO 22004KT 10SM SCT047 15/07 A2991 RMK AO2 SLP128 T01500067 $
KDUJ 272153Z AUTO 24007KT 10SM SCT040 16/07 A2991 RMK AO2 SLP128 T01610067 $
KDUJ 272053Z AUTO 24007KT 10SM BKN041 16/07 A2992 RMK AO2 SLP130 T01610067 56016 $
KDUJ 271953Z AUTO 27011G16KT 10SM BKN044 BKN050 16/07 A2993 RMK AO2 SLP135 T01610067 $
KDUJ 271853Z AUTO 26012G18KT 10SM FEW035 BKN049 16/08 A2995 RMK AO2 SLP143 T01610078 $
KDUJ 271753Z AUTO 25014G20KT 10SM FEW035 OVC044 15/08 A2996 RMK AO2 SLP149 T01500078 10156 20078 58000 $
KDUJ 271705Z AUTO 26014KT 10SM SCT024 BKN040 OVC070 14/08 A2996 RMK AO2 T01440083 $
KDUJ 271653Z AUTO 25010KT 10SM BKN022 OVC039 14/08 A2996 RMK AO2 SLP149 T01390083 $
KDUJ 271638Z AUTO 24012G18KT 10SM SCT019 BKN025 OVC037 14/09 A2996 RMK AO2 T01440089 $
KDUJ 271616Z AUTO 24011KT 10SM SCT019 OVC037 14/09 A2997 RMK AO2 T01390089 $
KDUJ 271553Z AUTO 23012KT 10SM BKN015 BKN020 OVC030 13/09 A2997 RMK AO2 SLP154 T01280089 $
KDUJ 271541Z AUTO 22011KT 10SM FEW012 BKN025 OVC030 13/09 A2997 RMK AO2 T01280094 $
KDUJ 271534Z AUTO 24011KT 10SM FEW012 SCT025 OVC031 13/09 A2997 RMK AO2 T01280094 $
KDUJ 271511Z AUTO 22012KT 9SM SCT010 BKN015 OVC025 12/09 A2997 RMK AO2 T01220094 $
KDUJ 271453Z AUTO 23013KT 10SM BKN009 OVC016 12/09 A2997 RMK AO2 CIG 007V011 SLP151 T01220094 55000 $
KDUJ 271417Z AUTO 22008KT 6SM BR OVC006 11/09 A2996 RMK AO2 CIG 003V010 T01110094 $
KDUJ 271353Z AUTO 18003KT 5SM BR OVC004 09/08 A2996 RMK AO2 SLP152 T00890078 $
KDUJ 271253Z AUTO VRB03KT 8SM OVC004 08/07 A2996 RMK AO2 SLP153 T00830072 $
KDUJ 271250Z AUTO 00000KT 8SM OVC004 08/07 A2997 RMK AO2 $
KDUJ 271153Z AUTO VRB03KT 10SM OVC006 08/06 A2997 RMK AO2 CIG 003V008 SLP154 60029 70053 T00780061 10078 20061 53007 $
KDUJ 271136Z AUTO 00000KT 9SM OVC006 08/07 A2996 RMK AO2 CIG 003V008 T00780067 $
KDUJ 271105Z AUTO 00000KT 9SM OVC003 07/06 A2995 RMK AO2 T00720061 $
KDUJ 271053Z AUTO VRB03KT 8SM OVC005 07/06 A2995 RMK AO2 CIG 003V008 SLP148 T00720061 $
KDUJ 270953Z AUTO 15006KT 10SM BKN005 OVC011 07/06 A2994 RMK AO2 RAB20E28 SLP144 P0000 T00670056 $
KDUJ 270944Z AUTO 13007KT 10SM BKN006 OVC011 07/06 A2994 RMK AO2 RAB20E28 P0000 T00670056 $
KDUJ 270936Z AUTO 13007KT 9SM SCT006 OVC011 07/06 A2994 RMK AO2 RAB20E28 P0000 T00670056 $
KDUJ 270900Z AUTO 13007KT 10SM BKN007 BKN011 OVC018 07/06 A2994 RMK AO2 CIG 004V010 T00670056 $
KDUJ 270853Z AUTO 15005KT 10SM SCT005 BKN010 OVC016 07/05 A2995 RMK AO2 SLP146 P0001 60029 T00670050 58009 $
KDUJ 270846Z AUTO 13008KT 10SM SCT005 BKN012 OVC021 07/05 A2994 RMK AO2 P0001 T00670050 $
KDUJ 270831Z AUTO 14009KT 10SM BKN004 BKN023 OVC070 06/05 A2994 RMK AO2 CIG 003V011 P0001 T00610050 $
KDUJ 270816Z AUTO 13009KT 9SM FEW004 BKN065 OVC080 06/05 A2995 RMK AO2 P0001 T00610050 $
KDUJ 270753Z AUTO 13012KT 9SM OVC075 06/05 A2995 RMK AO2 RAE37 SLP146 P0014 T00610050 $
KDUJ 270720Z AUTO 14008G15KT 3SM -RA BR FEW025 BKN042 OVC070 07/05 A2997 RMK AO2 P0013 T00670050 $
KDUJ 270710Z AUTO VRB03KT 1 1/4SM RA BR SCT004 SCT025 OVC035 06/05 A2998 RMK AO2 P0011 T00610050 $
KDUJ 270701Z AUTO 00000KT 1 3/4SM -RA BR BKN004 BKN031 OVC040 06/05 A2998 RMK AO2 P0003 T00610050 $
KDUJ 270653Z AUTO 15008KT 2 1/2SM -RA BR OVC004 06/05 A2998 RMK AO2 SLP155 P0014 T00610050 $
KDUJ 270627Z AUTO 12009KT 4SM -RA BR OVC004 06/04 A2997 RMK AO2 P0007 T00610044 $
KDUJ 270618Z AUTO 12010KT 2SM -RA BR BKN004 OVC011 06/04 A2997 RMK AO2 CIG 003V008 P0006 T00610044 $
KDUJ 270553Z AUTO 13012KT 7SM -RA BKN004 BKN009 OVC015 06/04 A2998 RMK AO2 RAB0459 CIG 003V008 SLP156 P0005 60024 T00610044 10061 20056 58025 $
KDUJ 270545Z AUTO 12010KT 7SM -RA BKN004 BKN008 OVC016 06/05 A2998 RMK AO2 RAB0459 CIG 003V007 P0005 T00610050 $
KDUJ 270453Z AUTO 12009KT 10SM OVC006 06/04 A3001 RMK AO2 CIG 004V008 SLP167 T00610044 401110056 $
KDUJ 270418Z AUTO 12010KT 10SM OVC006 06/04 A3001 RMK AO2 CIG 004V009 T00610044 $
KDUJ 270353Z AUTO 12009KT 10SM OVC004 06/04 A3003 RMK AO2 SLP173 T00610044 $
KDUJ 270342Z AUTO 12008KT 10SM OVC004 06/04 A3003 RMK AO2 T00610044 $
KDUJ 270318Z AUTO 12013G21KT 10SM BKN005 OVC009 06/04 A3004 RMK AO2 CIG 003V007 T00610044 $
KDUJ 270253Z AUTO 13013G20KT 10SM BKN004 OVC010 06/04 A3005 RMK AO2 RAE49 SLP184 P0005 60019 T00610044 58006 $
KDUJ 270212Z AUTO 13011G19KT 4SM -RA BR BKN005 OVC014 06/04 A3008 RMK AO2 P0002 T00610044 $
KDUJ 270153Z AUTO 13011KT 3SM -RA BR OVC004 06/04 A3008 RMK AO2 SLP195 P0012 T00610044 $
KDUJ 270131Z AUTO 13009KT 3SM -RA BR OVC004 06/04 A3008 RMK AO2 CIG 003V008 P0007 T00610044 $
KDUJ 270108Z AUTO 13009KT 2 1/2SM -RA BR OVC004 06/04 A3009 RMK AO2 P0002 T00610044 $
KDUJ 270053Z AUTO 14009G17KT 3SM -RA BR OVC005 06/04 A3008 RMK AO2 RAB34 SLP195 P0002 T00610044 $
KDUJ 262353Z AUTO 13012G22KT 4SM BR OVC005 06/04 A3007 RMK AO2 SLP191 60000 T00610044 10111 20061 55004 $
KDUJ 262253Z AUTO 13015G21KT 4SM BR OVC007 07/04 A3006 RMK AO2 SLP186 T00670044 $
KDUJ 262153Z AUTO 13011G19KT 5SM HZ OVC009 07/04 A3007 RMK AO2 RAB2059E11 SLP189 P0000 T00720044 $
KDUJ 262053Z AUTO 13013KT 6SM HZ OVC014 08/04 A3008 RMK AO2 SLP193 T00830044 56013 $
KDUJ 262040Z AUTO 12010G18KT 6SM HZ OVC014 08/04 A3009 RMK AO2 T00830039 $